sensor_id;sensor_type;location;lat;lon;timestamp;pressure;altitude;pressure_sealevel;temperature
20733;BMP180;10527;52.124;5.196;2022-12-10T00:01:36;100652.00;;;10.90
20733;BMP180;10527;52.124;5.196;2022-12-10T00:04:04;100664.00;;;11.00
20733;BMP180;10527;52.124;5.196;2022-12-10T00:06:35;100658.00;;;10.90
20733;BMP180;10527;52.124;5.196;2022-12-10T00:09:05;100656.00;;;10.90
20733;BMP180;10527;52.124;5.196;2022-12-10T00:11:35;100647.00;;;10.90
20733;BMP180;10527;52.124;5.196;2022-12-10T00:14:01;100649.00;;;10.90
20733;BMP180;10527;52.124;5.196;2022-12-10T00:16:29;100660.00;;;10.90
20733;BMP180;10527;52.124;5.196;2022-12-10T00:18:57;100659.00;;;10.90
20733;BMP180;10527;52.124;5.196;2022-12-10T00:21:29;100654.00;;;10.90
20733;BMP180;10527;52.124;5.196;2022-12-10T00:23:56;100662.00;;;10.90
20733;BMP180;10527;52.124;5.196;2022-12-10T00:26:30;100655.00;;;10.90
20733;BMP180;10527;52.124;5.196;2022-12-10T00:29:00;100669.00;;;10.90
20733;BMP180;10527;52.124;5.196;2022-12-10T00:31:31;100655.00;;;10.90
20733;BMP180;10527;52.124;5.196;2022-12-10T00:34:03;100664.00;;;10.90
20733;BMP180;10527;52.124;5.196;2022-12-10T00:36:35;100657.00;;;10.90
20733;BMP180;10527;52.124;5.196;2022-12-10T00:39:05;100665.00;;;10.90
20733;BMP180;10527;52.124;5.196;2022-12-10T00:41:32;100664.00;;;10.90
20733;BMP180;10527;52.124;5.196;2022-12-10T00:43:59;100661.00;;;10.90
20733;BMP180;10527;52.124;5.196;2022-12-10T00:46:27;100663.00;;;10.80
20733;BMP180;10527;52.124;5.196;2022-12-10T00:48:54;100666.00;;;10.90
20733;BMP180;10527;52.124;5.196;2022-12-10T00:51:24;100669.00;;;10.90
20733;BMP180;10527;52.124;5.196;2022-12-10T00:53:55;100673.00;;;10.90
20733;BMP180;10527;52.124;5.196;2022-12-10T00:56:29;100670.00;;;11.00
20733;BMP180;10527;52.124;5.196;2022-12-10T00:58:56;100661.00;;;11.00
20733;BMP180;10527;52.124;5.196;2022-12-10T01:01:37;100663.00;;;11.00
20733;BMP180;10527;52.124;5.196;2022-12-10T01:04:16;100669.00;;;10.90
20733;BMP180;10527;52.124;5.196;2022-12-10T01:06:50;100676.00;;;10.90
20733;BMP180;10527;52.124;5.196;2022-12-10T01:09:25;100676.00;;;10.90
20733;BMP180;10527;52.124;5.196;2022-12-10T01:11:54;100687.00;;;10.90
20733;BMP180;10527;52.124;5.196;2022-12-10T01:14:26;100682.00;;;10.90
20733;BMP180;10527;52.124;5.196;2022-12-10T01:16:56;100696.00;;;10.90
20733;BMP180;10527;52.124;5.196;2022-12-10T01:19:23;100690.00;;;10.90
20733;BMP180;10527;52.124;5.196;2022-12-10T01:21:52;100686.00;;;10.90
20733;BMP180;10527;52.124;5.196;2022-12-10T01:24:22;100692.00;;;10.90
20733;BMP180;10527;52.124;5.196;2022-12-10T01:26:51;100693.00;;;10.90
20733;BMP180;10527;52.124;5.196;2022-12-10T01:29:18;100689.00;;;10.90
20733;BMP180;10527;52.124;5.196;2022-12-10T01:31:45;100686.00;;;10.90
20733;BMP180;10527;52.124;5.196;2022-12-10T01:34:14;100694.00;;;10.90
20733;BMP180;10527;52.124;5.196;2022-12-10T01:36:45;100705.00;;;10.90
20733;BMP180;10527;52.124;5.196;2022-12-10T01:39:15;100698.00;;;10.90
20733;BMP180;10527;52.124;5.196;2022-12-10T01:41:59;100697.00;;;10.90
20733;BMP180;10527;52.124;5.196;2022-12-10T01:46:57;100710.00;;;10.90
20733;BMP180;10527;52.124;5.196;2022-12-10T01:49:45;100710.00;;;10.80
20733;BMP180;10527;52.124;5.196;2022-12-10T01:52:12;100707.00;;;10.80
20733;BMP180;10527;52.124;5.196;2022-12-10T01:54:44;100713.00;;;10.80
20733;BMP180;10527;52.124;5.196;2022-12-10T01:57:25;100718.00;;;10.80
20733;BMP180;10527;52.124;5.196;2022-12-10T02:00:01;100711.00;;;10.70
20733;BMP180;10527;52.124;5.196;2022-12-10T02:03:00;100723.00;;;10.70
20733;BMP180;10527;52.124;5.196;2022-12-10T02:05:49;100724.00;;;10.70
20733;BMP180;10527;52.124;5.196;2022-12-10T02:08:36;100709.00;;;10.70
20733;BMP180;10527;52.124;5.196;2022-12-10T02:11:31;100709.00;;;10.70
20733;BMP180;10527;52.124;5.196;2022-12-10T02:14:22;100717.00;;;10.70
20733;BMP180;10527;52.124;5.196;2022-12-10T02:17:14;100715.00;;;10.70
20733;BMP180;10527;52.124;5.196;2022-12-10T02:22:29;100709.00;;;10.70
20733;BMP180;10527;52.124;5.196;2022-12-10T02:24:59;100705.00;;;10.70
20733;BMP180;10527;52.124;5.196;2022-12-10T02:27:48;100717.00;;;10.70
20733;BMP180;10527;52.124;5.196;2022-12-10T02:30:19;100722.00;;;10.70
20733;BMP180;10527;52.124;5.196;2022-12-10T02:32:49;100708.00;;;10.70
20733;BMP180;10527;52.124;5.196;2022-12-10T02:35:26;100721.00;;;10.70
20733;BMP180;10527;52.124;5.196;2022-12-10T02:38:03;100720.00;;;10.80
20733;BMP180;10527;52.124;5.196;2022-12-10T02:40:34;100716.00;;;10.80
20733;BMP180;10527;52.124;5.196;2022-12-10T02:43:04;100719.00;;;10.80
20733;BMP180;10527;52.124;5.196;2022-12-10T02:45:32;100703.00;;;10.80
20733;BMP180;10527;52.124;5.196;2022-12-10T02:48:03;100712.00;;;10.80
20733;BMP180;10527;52.124;5.196;2022-12-10T02:50:30;100709.00;;;10.80
20733;BMP180;10527;52.124;5.196;2022-12-10T02:52:58;100714.00;;;10.80
20733;BMP180;10527;52.124;5.196;2022-12-10T02:55:25;100715.00;;;10.80
20733;BMP180;10527;52.124;5.196;2022-12-10T02:58:28;100721.00;;;10.90
20733;BMP180;10527;52.124;5.196;2022-12-10T03:01:09;100714.00;;;10.90
20733;BMP180;10527;52.124;5.196;2022-12-10T03:03:50;100711.00;;;10.90
20733;BMP180;10527;52.124;5.196;2022-12-10T03:06:26;100705.00;;;10.90
20733;BMP180;10527;52.124;5.196;2022-12-10T03:09:23;100724.00;;;10.90
20733;BMP180;10527;52.124;5.196;2022-12-10T03:12:18;100714.00;;;10.90
20733;BMP180;10527;52.124;5.196;2022-12-10T03:14:48;100720.00;;;10.90
20733;BMP180;10527;52.124;5.196;2022-12-10T03:17:16;100709.00;;;10.90
20733;BMP180;10527;52.124;5.196;2022-12-10T03:19:47;100713.00;;;10.90
20733;BMP180;10527;52.124;5.196;2022-12-10T03:22:19;100714.00;;;10.90
20733;BMP180;10527;52.124;5.196;2022-12-10T03:24:48;100705.00;;;10.90
20733;BMP180;10527;52.124;5.196;2022-12-10T03:27:20;100713.00;;;11.00
20733;BMP180;10527;52.124;5.196;2022-12-10T03:29:54;100724.00;;;11.00
20733;BMP180;10527;52.124;5.196;2022-12-10T03:32:27;100715.00;;;11.00
20733;BMP180;10527;52.124;5.196;2022-12-10T03:34:57;100704.00;;;11.00
20733;BMP180;10527;52.124;5.196;2022-12-10T03:37:29;100704.00;;;11.00
20733;BMP180;10527;52.124;5.196;2022-12-10T03:39:58;100701.00;;;10.90
20733;BMP180;10527;52.124;5.196;2022-12-10T03:42:25;100696.00;;;10.90
20733;BMP180;10527;52.124;5.196;2022-12-10T03:44:52;100704.00;;;11.00
20733;BMP180;10527;52.124;5.196;2022-12-10T03:47:19;100700.00;;;11.00
20733;BMP180;10527;52.124;5.196;2022-12-10T03:49:46;100709.00;;;11.00
20733;BMP180;10527;52.124;5.196;2022-12-10T03:52:13;100705.00;;;11.00
20733;BMP180;10527;52.124;5.196;2022-12-10T03:54:40;100712.00;;;11.00
20733;BMP180;10527;52.124;5.196;2022-12-10T03:57:07;100705.00;;;10.90
20733;BMP180;10527;52.124;5.196;2022-12-10T03:59:34;100699.00;;;10.90
20733;BMP180;10527;52.124;5.196;2022-12-10T04:02:02;100698.00;;;11.00
20733;BMP180;10527;52.124;5.196;2022-12-10T04:04:29;100703.00;;;11.00
20733;BMP180;10527;52.124;5.196;2022-12-10T04:06:56;100706.00;;;11.00
20733;BMP180;10527;52.124;5.196;2022-12-10T04:09:23;100702.00;;;11.00
20733;BMP180;10527;52.124;5.196;2022-12-10T04:11:50;100703.00;;;11.00
20733;BMP180;10527;52.124;5.196;2022-12-10T04:14:16;100691.00;;;11.00
20733;BMP180;10527;52.124;5.196;2022-12-10T04:17:03;100707.00;;;11.00
20733;BMP180;10527;52.124;5.196;2022-12-10T04:19:30;100703.00;;;11.00
20733;BMP180;10527;52.124;5.196;2022-12-10T04:22:00;100704.00;;;11.00
20733;BMP180;10527;52.124;5.196;2022-12-10T04:24:45;100699.00;;;11.00
20733;BMP180;10527;52.124;5.196;2022-12-10T04:27:36;100704.00;;;11.00
20733;BMP180;10527;52.124;5.196;2022-12-10T04:30:08;100702.00;;;11.00
20733;BMP180;10527;52.124;5.196;2022-12-10T04:32:36;100702.00;;;11.00
20733;BMP180;10527;52.124;5.196;2022-12-10T04:35:04;100709.00;;;11.00
20733;BMP180;10527;52.124;5.196;2022-12-10T04:37:32;100721.00;;;11.00
20733;BMP180;10527;52.124;5.196;2022-12-10T04:39:59;100713.00;;;11.00
20733;BMP180;10527;52.124;5.196;2022-12-10T04:42:26;100712.00;;;10.90
20733;BMP180;10527;52.124;5.196;2022-12-10T04:44:55;100716.00;;;10.90
20733;BMP180;10527;52.124;5.196;2022-12-10T04:47:22;100720.00;;;10.90
20733;BMP180;10527;52.124;5.196;2022-12-10T04:49:51;100724.00;;;10.80
20733;BMP180;10527;52.124;5.196;2022-12-10T04:52:19;100718.00;;;10.80
20733;BMP180;10527;52.124;5.196;2022-12-10T04:54:45;100717.00;;;10.80
20733;BMP180;10527;52.124;5.196;2022-12-10T04:57:12;100721.00;;;10.80
20733;BMP180;10527;52.124;5.196;2022-12-10T04:59:40;100718.00;;;10.80
20733;BMP180;10527;52.124;5.196;2022-12-10T05:02:08;100724.00;;;10.80
20733;BMP180;10527;52.124;5.196;2022-12-10T05:04:35;100720.00;;;10.70
20733;BMP180;10527;52.124;5.196;2022-12-10T05:07:02;100715.00;;;10.70
20733;BMP180;10527;52.124;5.196;2022-12-10T05:09:29;100724.00;;;10.70
20733;BMP180;10527;52.124;5.196;2022-12-10T05:11:56;100721.00;;;10.80
20733;BMP180;10527;52.124;5.196;2022-12-10T05:14:23;100712.00;;;10.80
20733;BMP180;10527;52.124;5.196;2022-12-10T05:16:51;100721.00;;;10.80
20733;BMP180;10527;52.124;5.196;2022-12-10T05:19:18;100718.00;;;10.80
20733;BMP180;10527;52.124;5.196;2022-12-10T05:21:50;100725.00;;;10.80
20733;BMP180;10527;52.124;5.196;2022-12-10T05:24:36;100727.00;;;10.80
20733;BMP180;10527;52.124;5.196;2022-12-10T05:27:04;100719.00;;;10.80
20733;BMP180;10527;52.124;5.196;2022-12-10T05:29:32;100719.00;;;10.80
20733;BMP180;10527;52.124;5.196;2022-12-10T05:31:59;100714.00;;;10.80
20733;BMP180;10527;52.124;5.196;2022-12-10T05:34:26;100721.00;;;10.70
20733;BMP180;10527;52.124;5.196;2022-12-10T05:36:53;100717.00;;;10.70
20733;BMP180;10527;52.124;5.196;2022-12-10T05:39:20;100717.00;;;10.70
20733;BMP180;10527;52.124;5.196;2022-12-10T05:41:49;100716.00;;;10.70
20733;BMP180;10527;52.124;5.196;2022-12-10T05:44:16;100726.00;;;10.70
20733;BMP180;10527;52.124;5.196;2022-12-10T05:46:43;100726.00;;;10.70
20733;BMP180;10527;52.124;5.196;2022-12-10T05:49:10;100726.00;;;10.70
20733;BMP180;10527;52.124;5.196;2022-12-10T05:51:37;100725.00;;;10.70
20733;BMP180;10527;52.124;5.196;2022-12-10T05:54:06;100723.00;;;10.70
20733;BMP180;10527;52.124;5.196;2022-12-10T05:56:34;100734.00;;;10.70
20733;BMP180;10527;52.124;5.196;2022-12-10T05:59:03;100734.00;;;10.70
20733;BMP180;10527;52.124;5.196;2022-12-10T06:01:33;100734.00;;;10.70
20733;BMP180;10527;52.124;5.196;2022-12-10T06:04:03;100736.00;;;10.60
20733;BMP180;10527;52.124;5.196;2022-12-10T06:06:34;100744.00;;;10.60
20733;BMP180;10527;52.124;5.196;2022-12-10T06:09:06;100731.00;;;10.60
20733;BMP180;10527;52.124;5.196;2022-12-10T06:11:33;100733.00;;;10.60
20733;BMP180;10527;52.124;5.196;2022-12-10T06:14:00;100738.00;;;10.60
20733;BMP180;10527;52.124;5.196;2022-12-10T06:16:29;100739.00;;;10.70
20733;BMP180;10527;52.124;5.196;2022-12-10T06:18:57;100739.00;;;10.70
20733;BMP180;10527;52.124;5.196;2022-12-10T06:21:25;100746.00;;;10.70
20733;BMP180;10527;52.124;5.196;2022-12-10T06:23:52;100743.00;;;10.70
20733;BMP180;10527;52.124;5.196;2022-12-10T06:26:25;100749.00;;;10.70
20733;BMP180;10527;52.124;5.196;2022-12-10T06:28:53;100742.00;;;10.70
20733;BMP180;10527;52.124;5.196;2022-12-10T06:31:22;100740.00;;;10.70
20733;BMP180;10527;52.124;5.196;2022-12-10T06:33:50;100751.00;;;10.70
20733;BMP180;10527;52.124;5.196;2022-12-10T06:36:18;100740.00;;;10.70
20733;BMP180;10527;52.124;5.196;2022-12-10T06:38:45;100747.00;;;10.70
20733;BMP180;10527;52.124;5.196;2022-12-10T06:41:16;100751.00;;;10.70
20733;BMP180;10527;52.124;5.196;2022-12-10T06:43:43;100744.00;;;10.70
20733;BMP180;10527;52.124;5.196;2022-12-10T06:46:14;100753.00;;;10.70
20733;BMP180;10527;52.124;5.196;2022-12-10T06:48:41;100754.00;;;10.70
20733;BMP180;10527;52.124;5.196;2022-12-10T06:51:12;100757.00;;;10.70
20733;BMP180;10527;52.124;5.196;2022-12-10T06:53:40;100757.00;;;10.70
20733;BMP180;10527;52.124;5.196;2022-12-10T06:56:20;100755.00;;;10.80
20733;BMP180;10527;52.124;5.196;2022-12-10T06:58:48;100751.00;;;10.80
20733;BMP180;10527;52.124;5.196;2022-12-10T07:01:22;100764.00;;;10.80
20733;BMP180;10527;52.124;5.196;2022-12-10T07:03:55;100763.00;;;10.80
20733;BMP180;10527;52.124;5.196;2022-12-10T07:06:25;100772.00;;;10.80
20733;BMP180;10527;52.124;5.196;2022-12-10T07:08:52;100774.00;;;10.90
20733;BMP180;10527;52.124;5.196;2022-12-10T07:11:22;100774.00;;;10.90
20733;BMP180;10527;52.124;5.196;2022-12-10T07:13:52;100781.00;;;10.90
20733;BMP180;10527;52.124;5.196;2022-12-10T07:16:23;100783.00;;;10.90
20733;BMP180;10527;52.124;5.196;2022-12-10T07:18:53;100786.00;;;10.90
20733;BMP180;10527;52.124;5.196;2022-12-10T07:21:33;100783.00;;;10.90
20733;BMP180;10527;52.124;5.196;2022-12-10T07:24:09;100793.00;;;10.90
20733;BMP180;10527;52.124;5.196;2022-12-10T07:26:39;100786.00;;;10.90
20733;BMP180;10527;52.124;5.196;2022-12-10T07:29:12;100784.00;;;10.90
20733;BMP180;10527;52.124;5.196;2022-12-10T07:31:40;100784.00;;;10.90
20733;BMP180;10527;52.124;5.196;2022-12-10T07:34:09;100789.00;;;11.00
20733;BMP180;10527;52.124;5.196;2022-12-10T07:36:36;100795.00;;;10.90
20733;BMP180;10527;52.124;5.196;2022-12-10T07:39:10;100798.00;;;10.90
20733;BMP180;10527;52.124;5.196;2022-12-10T07:41:48;100795.00;;;10.90
20733;BMP180;10527;52.124;5.196;2022-12-10T07:44:26;100797.00;;;10.90
20733;BMP180;10527;52.124;5.196;2022-12-10T07:46:55;100801.00;;;10.80
20733;BMP180;10527;52.124;5.196;2022-12-10T07:49:22;100797.00;;;10.80
20733;BMP180;10527;52.124;5.196;2022-12-10T07:51:50;100795.00;;;10.80
20733;BMP180;10527;52.124;5.196;2022-12-10T07:54:20;100798.00;;;10.80
20733;BMP180;10527;52.124;5.196;2022-12-10T07:56:47;100799.00;;;10.90
20733;BMP180;10527;52.124;5.196;2022-12-10T07:59:14;100798.00;;;10.90
20733;BMP180;10527;52.124;5.196;2022-12-10T08:01:41;100798.00;;;10.90
20733;BMP180;10527;52.124;5.196;2022-12-10T08:04:08;100794.00;;;10.90
20733;BMP180;10527;52.124;5.196;2022-12-10T08:06:35;100802.00;;;10.80
20733;BMP180;10527;52.124;5.196;2022-12-10T08:09:02;100797.00;;;10.80
20733;BMP180;10527;52.124;5.196;2022-12-10T08:11:29;100801.00;;;10.80
20733;BMP180;10527;52.124;5.196;2022-12-10T08:13:56;100799.00;;;10.80
20733;BMP180;10527;52.124;5.196;2022-12-10T08:16:28;100805.00;;;10.70
20733;BMP180;10527;52.124;5.196;2022-12-10T08:18:58;100797.00;;;10.70
20733;BMP180;10527;52.124;5.196;2022-12-10T08:21:29;100804.00;;;10.70
20733;BMP180;10527;52.124;5.196;2022-12-10T08:23:57;100804.00;;;10.70
20733;BMP180;10527;52.124;5.196;2022-12-10T08:26:31;100814.00;;;10.80
20733;BMP180;10527;52.124;5.196;2022-12-10T08:28:59;100811.00;;;10.80
20733;BMP180;10527;52.124;5.196;2022-12-10T08:31:28;100817.00;;;10.80
20733;BMP180;10527;52.124;5.196;2022-12-10T08:34:03;100824.00;;;10.80
20733;BMP180;10527;52.124;5.196;2022-12-10T08:36:33;100821.00;;;10.80
20733;BMP180;10527;52.124;5.196;2022-12-10T08:39:00;100825.00;;;10.80
20733;BMP180;10527;52.124;5.196;2022-12-10T08:41:27;100829.00;;;10.70
20733;BMP180;10527;52.124;5.196;2022-12-10T08:43:54;100839.00;;;10.70
20733;BMP180;10527;52.124;5.196;2022-12-10T08:46:21;100850.00;;;10.70
20733;BMP180;10527;52.124;5.196;2022-12-10T08:48:49;100847.00;;;10.70
20733;BMP180;10527;52.124;5.196;2022-12-10T08:51:18;100846.00;;;10.70
20733;BMP180;10527;52.124;5.196;2022-12-10T08:53:45;100854.00;;;10.70
20733;BMP180;10527;52.124;5.196;2022-12-10T08:56:12;100844.00;;;10.70
20733;BMP180;10527;52.124;5.196;2022-12-10T08:58:40;100857.00;;;10.70
20733;BMP180;10527;52.124;5.196;2022-12-10T09:01:17;100864.00;;;10.80
20733;BMP180;10527;52.124;5.196;2022-12-10T09:03:44;100860.00;;;10.80
20733;BMP180;10527;52.124;5.196;2022-12-10T09:06:16;100862.00;;;10.80
20733;BMP180;10527;52.124;5.196;2022-12-10T09:08:44;100869.00;;;10.80
20733;BMP180;10527;52.124;5.196;2022-12-10T09:11:18;100868.00;;;10.80
20733;BMP180;10527;52.124;5.196;2022-12-10T09:13:45;100863.00;;;10.80
20733;BMP180;10527;52.124;5.196;2022-12-10T09:16:13;100865.00;;;10.80
20733;BMP180;10527;52.124;5.196;2022-12-10T09:18:40;100868.00;;;10.80
20733;BMP180;10527;52.124;5.196;2022-12-10T09:21:11;100872.00;;;10.80
20733;BMP180;10527;52.124;5.196;2022-12-10T09:23:40;100883.00;;;10.80
20733;BMP180;10527;52.124;5.196;2022-12-10T09:26:10;100882.00;;;10.80
20733;BMP180;10527;52.124;5.196;2022-12-10T09:28:38;100884.00;;;10.80
20733;BMP180;10527;52.124;5.196;2022-12-10T09:31:07;100882.00;;;10.80
20733;BMP180;10527;52.124;5.196;2022-12-10T09:33:42;100882.00;;;10.80
20733;BMP180;10527;52.124;5.196;2022-12-10T09:36:12;100889.00;;;10.80
20733;BMP180;10527;52.124;5.196;2022-12-10T09:38:42;100892.00;;;10.80
20733;BMP180;10527;52.124;5.196;2022-12-10T09:41:54;100896.00;;;10.80
20733;BMP180;10527;52.124;5.196;2022-12-10T09:47:49;100896.00;;;10.70
20733;BMP180;10527;52.124;5.196;2022-12-10T09:50:45;100894.00;;;10.70
20733;BMP180;10527;52.124;5.196;2022-12-10T09:53:19;100892.00;;;10.70
20733;BMP180;10527;52.124;5.196;2022-12-10T09:55:49;100893.00;;;10.60
20733;BMP180;10527;52.124;5.196;2022-12-10T09:58:24;100892.00;;;10.60
20733;BMP180;10527;52.124;5.196;2022-12-10T10:01:19;100900.00;;;10.70
20733;BMP180;10527;52.124;5.196;2022-12-10T10:04:01;100896.00;;;10.70
20733;BMP180;10527;52.124;5.196;2022-12-10T10:06:30;100893.00;;;10.70
20733;BMP180;10527;52.124;5.196;2022-12-10T10:09:01;100899.00;;;10.80
20733;BMP180;10527;52.124;5.196;2022-12-10T10:11:33;100899.00;;;10.80
20733;BMP180;10527;52.124;5.196;2022-12-10T10:14:14;100888.00;;;10.80
20733;BMP180;10527;52.124;5.196;2022-12-10T10:16:51;100899.00;;;10.80
20733;BMP180;10527;52.124;5.196;2022-12-10T10:19:29;100907.00;;;10.90
20733;BMP180;10527;52.124;5.196;2022-12-10T10:21:58;100908.00;;;10.80
20733;BMP180;10527;52.124;5.196;2022-12-10T10:24:38;100908.00;;;10.80
20733;BMP180;10527;52.124;5.196;2022-12-10T10:27:29;100915.00;;;10.90
20733;BMP180;10527;52.124;5.196;2022-12-10T10:30:00;100908.00;;;10.90
20733;BMP180;10527;52.124;5.196;2022-12-10T10:32:54;100910.00;;;11.00
20733;BMP180;10527;52.124;5.196;2022-12-10T10:35:34;100909.00;;;11.00
20733;BMP180;10527;52.124;5.196;2022-12-10T10:38:43;100914.00;;;11.00
20733;BMP180;10527;52.124;5.196;2022-12-10T10:41:05;100917.00;;;10.90
20733;BMP180;10527;52.124;5.196;2022-12-10T10:43:44;100906.00;;;10.90
20733;BMP180;10527;52.124;5.196;2022-12-10T10:46:27;100907.00;;;10.90
20733;BMP180;10527;52.124;5.196;2022-12-10T10:49:24;100904.00;;;10.90
20733;BMP180;10527;52.124;5.196;2022-12-10T10:52:15;100898.00;;;10.80
20733;BMP180;10527;52.124;5.196;2022-12-10T10:54:45;100904.00;;;10.80
20733;BMP180;10527;52.124;5.196;2022-12-10T10:57:27;100909.00;;;10.80
20733;BMP180;10527;52.124;5.196;2022-12-10T11:00:05;100912.00;;;10.80
20733;BMP180;10527;52.124;5.196;2022-12-10T11:02:41;100912.00;;;10.80
20733;BMP180;10527;52.124;5.196;2022-12-10T11:05:26;100919.00;;;10.90
20733;BMP180;10527;52.124;5.196;2022-12-10T11:08:05;100914.00;;;10.90
20733;BMP180;10527;52.124;5.196;2022-12-10T11:10:34;100920.00;;;10.90
20733;BMP180;10527;52.124;5.196;2022-12-10T11:13:28;100915.00;;;10.90
20733;BMP180;10527;52.124;5.196;2022-12-10T11:16:24;100914.00;;;10.80
20733;BMP180;10527;52.124;5.196;2022-12-10T11:19:00;100911.00;;;10.80
20733;BMP180;10527;52.124;5.196;2022-12-10T11:21:34;100910.00;;;10.80
20733;BMP180;10527;52.124;5.196;2022-12-10T11:24:10;100903.00;;;10.80
20733;BMP180;10527;52.124;5.196;2022-12-10T11:26:43;100909.00;;;10.80
20733;BMP180;10527;52.124;5.196;2022-12-10T11:29:52;100902.00;;;10.80
20733;BMP180;10527;52.124;5.196;2022-12-10T11:32:54;100906.00;;;10.70
20733;BMP180;10527;52.124;5.196;2022-12-10T11:35:30;100896.00;;;10.70
20733;BMP180;10527;52.124;5.196;2022-12-10T11:38:27;100887.00;;;10.70
20733;BMP180;10527;52.124;5.196;2022-12-10T11:41:27;100893.00;;;10.70
20733;BMP180;10527;52.124;5.196;2022-12-10T11:50:26;100895.00;;;10.70
20733;BMP180;10527;52.124;5.196;2022-12-10T11:56:42;100908.00;;;10.80
20733;BMP180;10527;52.124;5.196;2022-12-10T11:59:20;100903.00;;;10.80
20733;BMP180;10527;52.124;5.196;2022-12-10T12:08:29;100900.00;;;10.80
20733;BMP180;10527;52.124;5.196;2022-12-10T12:14:20;100901.00;;;10.80
20733;BMP180;10527;52.124;5.196;2022-12-10T12:17:16;100900.00;;;10.90
20733;BMP180;10527;52.124;5.196;2022-12-10T12:20:11;100902.00;;;10.90
20733;BMP180;10527;52.124;5.196;2022-12-10T12:22:53;100894.00;;;10.90
20733;BMP180;10527;52.124;5.196;2022-12-10T12:25:30;100889.00;;;10.90
20733;BMP180;10527;52.124;5.196;2022-12-10T12:28:37;100903.00;;;10.90
20733;BMP180;10527;52.124;5.196;2022-12-10T12:31:18;100891.00;;;10.90
20733;BMP180;10527;52.124;5.196;2022-12-10T12:33:59;100898.00;;;10.90
20733;BMP180;10527;52.124;5.196;2022-12-10T12:36:30;100898.00;;;10.90
20733;BMP180;10527;52.124;5.196;2022-12-10T12:39:06;100904.00;;;10.90
20733;BMP180;10527;52.124;5.196;2022-12-10T12:49:53;100890.00;;;10.90
20733;BMP180;10527;52.124;5.196;2022-12-10T12:52:40;100886.00;;;10.90
20733;BMP180;10527;52.124;5.196;2022-12-10T13:01:40;100894.00;;;10.90
20733;BMP180;10527;52.124;5.196;2022-12-10T13:04:11;100899.00;;;10.90
20733;BMP180;10527;52.124;5.196;2022-12-10T13:06:40;100893.00;;;11.00
20733;BMP180;10527;52.124;5.196;2022-12-10T13:15:03;100902.00;;;11.10
20733;BMP180;10527;52.124;5.196;2022-12-10T13:17:38;100895.00;;;11.10
20733;BMP180;10527;52.124;5.196;2022-12-10T13:20:33;100902.00;;;11.10
20733;BMP180;10527;52.124;5.196;2022-12-10T13:23:04;100895.00;;;11.10
20733;BMP180;10527;52.124;5.196;2022-12-10T13:28:48;100891.00;;;11.10
20733;BMP180;10527;52.124;5.196;2022-12-10T13:31:18;100897.00;;;11.10
20733;BMP180;10527;52.124;5.196;2022-12-10T13:34:32;100896.00;;;11.00
20733;BMP180;10527;52.124;5.196;2022-12-10T13:37:15;100893.00;;;11.00
20733;BMP180;10527;52.124;5.196;2022-12-10T13:39:53;100893.00;;;11.00
20733;BMP180;10527;52.124;5.196;2022-12-10T13:42:32;100891.00;;;11.00
20733;BMP180;10527;52.124;5.196;2022-12-10T13:45:35;100904.00;;;11.00
20733;BMP180;10527;52.124;5.196;2022-12-10T13:48:31;100912.00;;;11.00
20733;BMP180;10527;52.124;5.196;2022-12-10T13:51:15;100918.00;;;11.00
20733;BMP180;10527;52.124;5.196;2022-12-10T14:00:13;100931.00;;;11.00
20733;BMP180;10527;52.124;5.196;2022-12-10T14:03:47;100922.00;;;11.00
20733;BMP180;10527;52.124;5.196;2022-12-10T14:08:31;100924.00;;;10.90
20733;BMP180;10527;52.124;5.196;2022-12-10T14:11:01;100912.00;;;10.90
20733;BMP180;10527;52.124;5.196;2022-12-10T14:13:41;100909.00;;;11.00
20733;BMP180;10527;52.124;5.196;2022-12-10T14:16:14;100920.00;;;11.00
20733;BMP180;10527;52.124;5.196;2022-12-10T14:18:52;100921.00;;;11.00
20733;BMP180;10527;52.124;5.196;2022-12-10T14:21:20;100936.00;;;11.00
20733;BMP180;10527;52.124;5.196;2022-12-10T14:23:48;100935.00;;;11.00
20733;BMP180;10527;52.124;5.196;2022-12-10T14:26:42;100948.00;;;11.10
20733;BMP180;10527;52.124;5.196;2022-12-10T14:29:21;100943.00;;;11.00
20733;BMP180;10527;52.124;5.196;2022-12-10T14:31:55;100948.00;;;11.00
20733;BMP180;10527;52.124;5.196;2022-12-10T14:34:27;100948.00;;;11.00
20733;BMP180;10527;52.124;5.196;2022-12-10T14:36:58;100959.00;;;11.00
20733;BMP180;10527;52.124;5.196;2022-12-10T14:39:32;100960.00;;;11.00
20733;BMP180;10527;52.124;5.196;2022-12-10T14:42:05;100956.00;;;11.00
20733;BMP180;10527;52.124;5.196;2022-12-10T14:44:39;100941.00;;;11.00
20733;BMP180;10527;52.124;5.196;2022-12-10T14:47:17;100941.00;;;11.10
20733;BMP180;10527;52.124;5.196;2022-12-10T14:49:48;100940.00;;;11.00
20733;BMP180;10527;52.124;5.196;2022-12-10T14:52:23;100947.00;;;11.00
20733;BMP180;10527;52.124;5.196;2022-12-10T14:54:53;100954.00;;;11.00
20733;BMP180;10527;52.124;5.196;2022-12-10T14:57:56;100944.00;;;11.10
20733;BMP180;10527;52.124;5.196;2022-12-10T15:00:24;100942.00;;;11.10
20733;BMP180;10527;52.124;5.196;2022-12-10T15:03:00;100947.00;;;11.10
20733;BMP180;10527;52.124;5.196;2022-12-10T15:05:31;100954.00;;;11.10
20733;BMP180;10527;52.124;5.196;2022-12-10T15:08:15;100945.00;;;11.20
20733;BMP180;10527;52.124;5.196;2022-12-10T15:10:50;100952.00;;;11.20
20733;BMP180;10527;52.124;5.196;2022-12-10T15:13:32;100957.00;;;11.20
20733;BMP180;10527;52.124;5.196;2022-12-10T15:16:00;100955.00;;;11.20
20733;BMP180;10527;52.124;5.196;2022-12-10T15:18:39;100945.00;;;11.30
20733;BMP180;10527;52.124;5.196;2022-12-10T15:21:22;100947.00;;;11.30
20733;BMP180;10527;52.124;5.196;2022-12-10T15:23:52;100955.00;;;11.30
20733;BMP180;10527;52.124;5.196;2022-12-10T15:26:33;100952.00;;;11.30
20733;BMP180;10527;52.124;5.196;2022-12-10T15:32:13;100953.00;;;11.20
20733;BMP180;10527;52.124;5.196;2022-12-10T15:34:48;100946.00;;;11.30
20733;BMP180;10527;52.124;5.196;2022-12-10T15:37:23;100953.00;;;11.30
20733;BMP180;10527;52.124;5.196;2022-12-10T15:39:57;100938.00;;;11.30